Terminal Aerodrome Forecast
Issued by NWS

Home | Current Version | Previous Version | Text Only | Print | Product List | Glossary On
Versions: 1 2 3 4 5 6 7 8 9 10 11 12 13 14 15 16 17
000
FTUS46 KOTX 270533
TAFMWH
TAF
KMWH 270533Z 2706/2806 36006KT P6SM FEW040
     FM271300 32005KT 6SM BR VCFG SCT002 SCT100
     FM271900 22003KT P6SM VCSH SCT030 BKN080
     FM280000 20004KT P6SM -SHSN OVC040=

USA.gov is the U.S. government's official web portal to all federal, state and local government web resources and services.